sensor_id;sensor_type;location;lat;lon;timestamp;pressure;altitude;pressure_sealevel;temperature;humidity
64614;BME280;51025;37.772;-122.432;2022-09-13T00:00:20;100755.48;;;23.09;32.60
64614;BME280;51025;37.772;-122.432;2022-09-13T00:02:49;100754.84;;;22.31;32.64
64614;BME280;51025;37.772;-122.432;2022-09-13T00:05:18;100750.95;;;23.78;32.29
64614;BME280;51025;37.772;-122.432;2022-09-13T00:07:46;100749.83;;;22.24;32.66
64614;BME280;51025;37.772;-122.432;2022-09-13T00:10:15;100752.81;;;23.14;32.55
64614;BME280;51025;37.772;-122.432;2022-09-13T00:12:45;100744.13;;;23.06;32.20
64614;BME280;51025;37.772;-122.432;2022-09-13T00:15:15;100746.76;;;23.26;32.76
64614;BME280;51025;37.772;-122.432;2022-09-13T00:17:44;100745.35;;;23.33;32.33
64614;BME280;51025;37.772;-122.432;2022-09-13T00:20:12;100748.98;;;23.07;32.62
64614;BME280;51025;37.772;-122.432;2022-09-13T00:22:42;100752.77;;;22.90;32.93
64614;BME280;51025;37.772;-122.432;2022-09-13T00:25:10;100753.88;;;22.56;32.87
64614;BME280;51025;37.772;-122.432;2022-09-13T00:27:39;100751.64;;;23.59;32.99
64614;BME280;51025;37.772;-122.432;2022-09-13T00:30:09;100751.87;;;23.32;32.85
64614;BME280;51025;37.772;-122.432;2022-09-13T00:32:38;100754.64;;;23.06;33.13
64614;BME280;51025;37.772;-122.432;2022-09-13T00:35:07;100751.78;;;22.79;32.92
64614;BME280;51025;37.772;-122.432;2022-09-13T00:37:36;100752.56;;;23.68;32.39
64614;BME280;51025;37.772;-122.432;2022-09-13T00:40:06;100746.45;;;22.72;32.95
64614;BME280;51025;37.772;-122.432;2022-09-13T00:42:34;100747.15;;;23.21;32.81
64614;BME280;51025;37.772;-122.432;2022-09-13T00:45:15;100743.22;;;22.91;33.16
64614;BME280;51025;37.772;-122.432;2022-09-13T00:47:47;100737.61;;;22.13;32.93
64614;BME280;51025;37.772;-122.432;2022-09-13T00:50:20;100740.04;;;23.30;32.61
64614;BME280;51025;37.772;-122.432;2022-09-13T00:52:52;100732.50;;;22.16;32.87
64614;BME280;51025;37.772;-122.432;2022-09-13T00:55:25;100732.17;;;23.14;33.00
64614;BME280;51025;37.772;-122.432;2022-09-13T00:57:57;100726.66;;;22.66;33.08
64614;BME280;51025;37.772;-122.432;2022-09-13T01:00:27;100721.72;;;23.51;33.00
64614;BME280;51025;37.772;-122.432;2022-09-13T01:02:59;100717.13;;;22.80;32.90
64614;BME280;51025;37.772;-122.432;2022-09-13T01:05:32;100721.29;;;23.07;33.01
64614;BME280;51025;37.772;-122.432;2022-09-13T01:08:03;100716.94;;;22.59;33.08
64614;BME280;51025;37.772;-122.432;2022-09-13T01:10:33;100716.12;;;23.27;32.73
64614;BME280;51025;37.772;-122.432;2022-09-13T01:13:06;100716.30;;;22.64;32.97
64614;BME280;51025;37.772;-122.432;2022-09-13T01:15:37;100712.93;;;23.04;32.93
64614;BME280;51025;37.772;-122.432;2022-09-13T01:18:06;100712.43;;;22.47;33.14
64614;BME280;51025;37.772;-122.432;2022-09-13T01:20:58;100713.28;;;22.85;33.07
64614;BME280;51025;37.772;-122.432;2022-09-13T01:23:56;100712.29;;;23.40;32.91
64614;BME280;51025;37.772;-122.432;2022-09-13T01:26:48;100713.09;;;23.22;32.67
64614;BME280;51025;37.772;-122.432;2022-09-13T01:29:57;100708.36;;;22.83;33.06
64614;BME280;51025;37.772;-122.432;2022-09-13T01:32:33;100702.33;;;22.64;33.20
64614;BME280;51025;37.772;-122.432;2022-09-13T01:35:12;100698.96;;;23.01;33.23
64614;BME280;51025;37.772;-122.432;2022-09-13T01:37:50;100696.06;;;22.33;33.09
64614;BME280;51025;37.772;-122.432;2022-09-13T01:40:36;100692.72;;;23.42;32.79
64614;BME280;51025;37.772;-122.432;2022-09-13T01:43:26;100687.23;;;22.90;32.85
64614;BME280;51025;37.772;-122.432;2022-09-13T01:46:04;100691.06;;;22.27;33.09
64614;BME280;51025;37.772;-122.432;2022-09-13T01:48:49;100693.81;;;22.92;33.22
64614;BME280;51025;37.772;-122.432;2022-09-13T01:51:26;100689.31;;;22.99;33.12
64614;BME280;51025;37.772;-122.432;2022-09-13T01:54:05;100690.40;;;23.18;32.41
64614;BME280;51025;37.772;-122.432;2022-09-13T01:56:41;100688.18;;;22.69;32.80
64614;BME280;51025;37.772;-122.432;2022-09-13T01:59:15;100700.32;;;22.52;32.56
64614;BME280;51025;37.772;-122.432;2022-09-13T02:01:48;100694.55;;;22.04;32.93
64614;BME280;51025;37.772;-122.432;2022-09-13T02:04:23;100690.46;;;22.82;32.96
64614;BME280;51025;37.772;-122.432;2022-09-13T02:07:00;100695.62;;;21.65;32.89
64614;BME280;51025;37.772;-122.432;2022-09-13T02:09:34;100696.97;;;22.37;33.35
64614;BME280;51025;37.772;-122.432;2022-09-13T02:12:09;100700.42;;;22.47;33.20
64614;BME280;51025;37.772;-122.432;2022-09-13T02:14:43;100705.00;;;22.92;32.74
64614;BME280;51025;37.772;-122.432;2022-09-13T02:17:15;100700.16;;;22.24;32.94
64614;BME280;51025;37.772;-122.432;2022-09-13T02:19:50;100699.77;;;22.03;32.82
64614;BME280;51025;37.772;-122.432;2022-09-13T02:22:25;100699.32;;;22.52;33.07
64614;BME280;51025;37.772;-122.432;2022-09-13T02:24:57;100698.95;;;22.44;33.14
64614;BME280;51025;37.772;-122.432;2022-09-13T02:27:31;100700.63;;;22.39;33.15
64614;BME280;51025;37.772;-122.432;2022-09-13T02:30:03;100695.09;;;21.88;33.67
64614;BME280;51025;37.772;-122.432;2022-09-13T02:32:37;100693.69;;;21.86;33.69
64614;BME280;51025;37.772;-122.432;2022-09-13T02:35:10;100696.93;;;22.05;33.88
64614;BME280;51025;37.772;-122.432;2022-09-13T02:37:44;100702.72;;;22.44;33.85
64614;BME280;51025;37.772;-122.432;2022-09-13T02:40:17;100703.60;;;22.16;33.79
64614;BME280;51025;37.772;-122.432;2022-09-13T02:42:51;100701.68;;;21.22;33.64
64614;BME280;51025;37.772;-122.432;2022-09-13T02:45:22;100696.04;;;21.80;33.84
64614;BME280;51025;37.772;-122.432;2022-09-13T02:47:59;100697.54;;;21.47;33.76
64614;BME280;51025;37.772;-122.432;2022-09-13T02:50:36;100698.40;;;21.85;33.75
64614;BME280;51025;37.772;-122.432;2022-09-13T02:53:16;100694.32;;;21.98;33.60
64614;BME280;51025;37.772;-122.432;2022-09-13T02:55:57;100685.21;;;20.85;33.52
64614;BME280;51025;37.772;-122.432;2022-09-13T02:58:33;100687.21;;;21.92;33.64
64614;BME280;51025;37.772;-122.432;2022-09-13T03:01:09;100687.64;;;22.38;33.51
64614;BME280;51025;37.772;-122.432;2022-09-13T03:03:38;100689.03;;;22.62;33.63
64614;BME280;51025;37.772;-122.432;2022-09-13T03:06:06;100683.14;;;21.88;33.64
64614;BME280;51025;37.772;-122.432;2022-09-13T03:08:36;100681.47;;;22.55;33.67
64614;BME280;51025;37.772;-122.432;2022-09-13T03:11:12;100681.45;;;21.92;33.57
64614;BME280;51025;37.772;-122.432;2022-09-13T03:14:05;100683.94;;;21.51;33.56
64614;BME280;51025;37.772;-122.432;2022-09-13T03:16:47;100683.55;;;22.04;33.44
64614;BME280;51025;37.772;-122.432;2022-09-13T03:19:35;100689.56;;;22.06;33.43
64614;BME280;51025;37.772;-122.432;2022-09-13T03:22:22;100693.94;;;21.97;33.48
64614;BME280;51025;37.772;-122.432;2022-09-13T03:25:00;100699.79;;;21.59;33.42
64614;BME280;51025;37.772;-122.432;2022-09-13T03:27:36;100703.84;;;22.33;33.43
64614;BME280;51025;37.772;-122.432;2022-09-13T03:30:10;100706.64;;;21.55;33.45
64614;BME280;51025;37.772;-122.432;2022-09-13T03:32:47;100702.58;;;22.44;33.30
64614;BME280;51025;37.772;-122.432;2022-09-13T03:35:24;100699.43;;;21.94;33.42
64614;BME280;51025;37.772;-122.432;2022-09-13T03:37:58;100697.43;;;21.14;33.45
64614;BME280;51025;37.772;-122.432;2022-09-13T03:40:37;100702.69;;;22.34;33.37
64614;BME280;51025;37.772;-122.432;2022-09-13T03:43:11;100707.47;;;21.84;33.49
64614;BME280;51025;37.772;-122.432;2022-09-13T03:45:44;100712.86;;;21.94;33.39
64614;BME280;51025;37.772;-122.432;2022-09-13T03:48:13;100715.08;;;22.05;33.22
64614;BME280;51025;37.772;-122.432;2022-09-13T03:50:46;100719.74;;;21.65;33.20
64614;BME280;51025;37.772;-122.432;2022-09-13T03:53:18;100729.76;;;22.01;33.28
64614;BME280;51025;37.772;-122.432;2022-09-13T03:55:48;100728.93;;;20.71;33.35
64614;BME280;51025;37.772;-122.432;2022-09-13T03:58:19;100734.59;;;22.02;33.21
64614;BME280;51025;37.772;-122.432;2022-09-13T04:00:47;100739.62;;;22.69;33.25
64614;BME280;51025;37.772;-122.432;2022-09-13T04:03:16;100743.38;;;22.13;33.47
64614;BME280;51025;37.772;-122.432;2022-09-13T04:05:46;100741.00;;;21.37;33.05
64614;BME280;51025;37.772;-122.432;2022-09-13T04:08:14;100748.19;;;22.56;33.36
64614;BME280;51025;37.772;-122.432;2022-09-13T04:10:43;100752.31;;;21.83;33.40
64614;BME280;51025;37.772;-122.432;2022-09-13T04:13:11;100749.66;;;22.67;32.89
64614;BME280;51025;37.772;-122.432;2022-09-13T04:15:40;100752.60;;;21.80;33.39
64614;BME280;51025;37.772;-122.432;2022-09-13T04:18:08;100754.66;;;21.97;33.22
64614;BME280;51025;37.772;-122.432;2022-09-13T04:20:37;100754.97;;;21.92;33.32
64614;BME280;51025;37.772;-122.432;2022-09-13T04:23:06;100752.63;;;21.84;33.38
64614;BME280;51025;37.772;-122.432;2022-09-13T04:25:38;100756.35;;;21.81;33.41
64614;BME280;51025;37.772;-122.432;2022-09-13T04:28:06;100758.32;;;21.81;33.40
64614;BME280;51025;37.772;-122.432;2022-09-13T04:30:34;100754.59;;;22.60;32.92
64614;BME280;51025;37.772;-122.432;2022-09-13T04:33:02;100755.68;;;21.81;33.37
64614;BME280;51025;37.772;-122.432;2022-09-13T04:35:31;100762.57;;;22.16;33.37
64614;BME280;51025;37.772;-122.432;2022-09-13T04:37:59;100767.11;;;21.82;33.35
64614;BME280;51025;37.772;-122.432;2022-09-13T04:40:27;100767.39;;;22.24;33.23
64614;BME280;51025;37.772;-122.432;2022-09-13T04:42:56;100774.02;;;21.38;33.36
64614;BME280;51025;37.772;-122.432;2022-09-13T04:45:25;100775.16;;;21.68;33.46
64614;BME280;51025;37.772;-122.432;2022-09-13T04:47:53;100771.97;;;21.69;32.99
64614;BME280;51025;37.772;-122.432;2022-09-13T04:50:23;100772.82;;;21.78;33.35
64614;BME280;51025;37.772;-122.432;2022-09-13T04:52:55;100770.39;;;21.12;33.19
64614;BME280;51025;37.772;-122.432;2022-09-13T04:55:24;100773.24;;;21.86;33.25
64614;BME280;51025;37.772;-122.432;2022-09-13T04:57:54;100765.66;;;22.12;32.95
64614;BME280;51025;37.772;-122.432;2022-09-13T05:00:22;100762.10;;;21.92;33.12
64614;BME280;51025;37.772;-122.432;2022-09-13T05:02:55;100761.69;;;21.33;33.32
64614;BME280;51025;37.772;-122.432;2022-09-13T05:05:23;100760.70;;;22.19;33.19
64614;BME280;51025;37.772;-122.432;2022-09-13T05:07:52;100759.25;;;21.31;33.31
64614;BME280;51025;37.772;-122.432;2022-09-13T05:10:21;100757.41;;;22.30;33.41
64614;BME280;51025;37.772;-122.432;2022-09-13T05:12:50;100755.15;;;20.82;33.43
64614;BME280;51025;37.772;-122.432;2022-09-13T05:15:19;100761.88;;;21.75;33.29
64614;BME280;51025;37.772;-122.432;2022-09-13T05:17:47;100763.12;;;20.90;33.34
64614;BME280;51025;37.772;-122.432;2022-09-13T05:20:16;100764.15;;;22.10;33.24
64614;BME280;51025;37.772;-122.432;2022-09-13T05:22:45;100765.10;;;21.36;33.18
64614;BME280;51025;37.772;-122.432;2022-09-13T05:25:13;100763.53;;;21.66;33.30
64614;BME280;51025;37.772;-122.432;2022-09-13T05:27:44;100759.55;;;21.93;33.35
64614;BME280;51025;37.772;-122.432;2022-09-13T05:30:13;100762.16;;;21.66;33.26
64614;BME280;51025;37.772;-122.432;2022-09-13T05:32:41;100762.09;;;21.77;33.14
64614;BME280;51025;37.772;-122.432;2022-09-13T05:35:09;100760.78;;;22.32;33.28
64614;BME280;51025;37.772;-122.432;2022-09-13T05:37:37;100759.53;;;21.57;33.30
64614;BME280;51025;37.772;-122.432;2022-09-13T05:40:06;100755.38;;;21.55;33.32
64614;BME280;51025;37.772;-122.432;2022-09-13T05:42:35;100757.03;;;22.52;33.05
64614;BME280;51025;37.772;-122.432;2022-09-13T05:45:04;100757.15;;;21.69;33.14
64614;BME280;51025;37.772;-122.432;2022-09-13T05:47:33;100754.24;;;21.95;33.22
64614;BME280;51025;37.772;-122.432;2022-09-13T05:50:02;100759.08;;;21.68;33.13
64614;BME280;51025;37.772;-122.432;2022-09-13T05:52:30;100761.32;;;22.63;32.86
64614;BME280;51025;37.772;-122.432;2022-09-13T05:54:59;100765.53;;;21.45;33.37
64614;BME280;51025;37.772;-122.432;2022-09-13T05:57:27;100763.07;;;21.82;33.36
64614;BME280;51025;37.772;-122.432;2022-09-13T05:59:56;100766.69;;;21.08;33.30
64614;BME280;51025;37.772;-122.432;2022-09-13T06:02:25;100769.23;;;21.61;33.14
64614;BME280;51025;37.772;-122.432;2022-09-13T06:04:53;100767.54;;;21.09;33.25
64614;BME280;51025;37.772;-122.432;2022-09-13T06:07:22;100771.15;;;22.40;33.07
64614;BME280;51025;37.772;-122.432;2022-09-13T06:09:50;100772.26;;;21.16;33.16
64614;BME280;51025;37.772;-122.432;2022-09-13T06:12:18;100767.93;;;21.52;33.20
64614;BME280;51025;37.772;-122.432;2022-09-13T06:14:47;100762.08;;;21.12;33.19
64614;BME280;51025;37.772;-122.432;2022-09-13T06:17:16;100759.10;;;21.84;33.22
64614;BME280;51025;37.772;-122.432;2022-09-13T06:19:44;100761.00;;;21.16;33.10
64614;BME280;51025;37.772;-122.432;2022-09-13T06:22:12;100755.64;;;21.65;32.95
64614;BME280;51025;37.772;-122.432;2022-09-13T06:24:41;100756.72;;;22.23;33.07
64614;BME280;51025;37.772;-122.432;2022-09-13T06:27:10;100749.47;;;21.66;32.96
64614;BME280;51025;37.772;-122.432;2022-09-13T06:29:39;100749.90;;;22.30;32.99
64614;BME280;51025;37.772;-122.432;2022-09-13T06:32:07;100743.73;;;22.14;33.18
64614;BME280;51025;37.772;-122.432;2022-09-13T06:34:36;100743.33;;;21.76;33.21
64614;BME280;51025;37.772;-122.432;2022-09-13T06:37:04;100739.74;;;21.45;33.15
64614;BME280;51025;37.772;-122.432;2022-09-13T06:39:32;100738.14;;;21.83;33.10
64614;BME280;51025;37.772;-122.432;2022-09-13T06:42:01;100744.74;;;22.12;33.18
64614;BME280;51025;37.772;-122.432;2022-09-13T06:44:29;100736.78;;;22.31;32.97
64614;BME280;51025;37.772;-122.432;2022-09-13T06:46:58;100739.37;;;21.47;33.05
64614;BME280;51025;37.772;-122.432;2022-09-13T06:49:26;100739.38;;;22.18;33.04
64614;BME280;51025;37.772;-122.432;2022-09-13T06:51:54;100740.15;;;21.12;32.97
64614;BME280;51025;37.772;-122.432;2022-09-13T06:54:23;100740.96;;;22.19;33.01
64614;BME280;51025;37.772;-122.432;2022-09-13T06:56:52;100736.27;;;21.35;32.73
64614;BME280;51025;37.772;-122.432;2022-09-13T06:59:20;100736.05;;;21.62;32.85
64614;BME280;51025;37.772;-122.432;2022-09-13T07:01:48;100736.48;;;20.76;32.56
64614;BME280;51025;37.772;-122.432;2022-09-13T07:04:18;100738.32;;;22.38;32.45
64614;BME280;51025;37.772;-122.432;2022-09-13T07:06:48;100739.00;;;21.40;32.62
64614;BME280;51025;37.772;-122.432;2022-09-13T07:09:18;100743.01;;;22.20;32.96
64614;BME280;51025;37.772;-122.432;2022-09-13T07:11:49;100737.19;;;21.51;32.93
64614;BME280;51025;37.772;-122.432;2022-09-13T07:14:19;100741.65;;;21.84;32.90
64614;BME280;51025;37.772;-122.432;2022-09-13T07:16:49;100746.37;;;21.25;32.70
64614;BME280;51025;37.772;-122.432;2022-09-13T07:19:19;100745.82;;;22.07;33.08
64614;BME280;51025;37.772;-122.432;2022-09-13T07:21:48;100748.95;;;20.57;33.11
64614;BME280;51025;37.772;-122.432;2022-09-13T07:24:17;100750.73;;;21.98;33.17
64614;BME280;51025;37.772;-122.432;2022-09-13T07:26:46;100748.86;;;21.28;33.14
64614;BME280;51025;37.772;-122.432;2022-09-13T07:29:17;100747.48;;;21.46;32.95
64614;BME280;51025;37.772;-122.432;2022-09-13T07:31:48;100747.14;;;21.12;32.87
64614;BME280;51025;37.772;-122.432;2022-09-13T07:34:17;100746.56;;;21.75;32.99
64614;BME280;51025;37.772;-122.432;2022-09-13T07:36:47;100745.81;;;20.91;33.06
64614;BME280;51025;37.772;-122.432;2022-09-13T07:39:16;100745.73;;;21.84;33.26
64614;BME280;51025;37.772;-122.432;2022-09-13T07:41:46;100745.69;;;21.17;33.24
64614;BME280;51025;37.772;-122.432;2022-09-13T07:44:15;100743.19;;;21.66;33.04
64614;BME280;51025;37.772;-122.432;2022-09-13T07:46:43;100738.87;;;21.55;33.17
64614;BME280;51025;37.772;-122.432;2022-09-13T07:49:13;100734.22;;;21.66;33.03
64614;BME280;51025;37.772;-122.432;2022-09-13T07:51:43;100732.79;;;22.24;32.80
64614;BME280;51025;37.772;-122.432;2022-09-13T07:54:13;100732.04;;;21.42;33.29
64614;BME280;51025;37.772;-122.432;2022-09-13T07:56:43;100726.75;;;21.78;33.30
64614;BME280;51025;37.772;-122.432;2022-09-13T07:59:14;100723.93;;;21.98;33.01
64614;BME280;51025;37.772;-122.432;2022-09-13T08:01:44;100719.61;;;21.45;33.22
64614;BME280;51025;37.772;-122.432;2022-09-13T08:04:15;100720.42;;;20.73;33.16
64614;BME280;51025;37.772;-122.432;2022-09-13T08:06:44;100715.65;;;21.86;32.48
64614;BME280;51025;37.772;-122.432;2022-09-13T08:09:12;100718.54;;;21.12;33.20
64614;BME280;51025;37.772;-122.432;2022-09-13T08:11:43;100721.79;;;22.03;33.00
64614;BME280;51025;37.772;-122.432;2022-09-13T08:14:13;100720.33;;;21.89;33.12
64614;BME280;51025;37.772;-122.432;2022-09-13T08:16:43;100720.23;;;22.35;32.63
64614;BME280;51025;37.772;-122.432;2022-09-13T08:19:13;100722.74;;;21.35;33.30
64614;BME280;51025;37.772;-122.432;2022-09-13T08:21:43;100718.94;;;21.66;33.33
64614;BME280;51025;37.772;-122.432;2022-09-13T08:24:14;100721.68;;;21.34;33.30
64614;BME280;51025;37.772;-122.432;2022-09-13T08:26:44;100727.04;;;22.40;32.54
64614;BME280;51025;37.772;-122.432;2022-09-13T08:29:14;100722.26;;;21.24;33.41
64614;BME280;51025;37.772;-122.432;2022-09-13T08:31:43;100724.48;;;21.35;33.27
64614;BME280;51025;37.772;-122.432;2022-09-13T08:34:13;100722.14;;;21.74;33.22
64614;BME280;51025;37.772;-122.432;2022-09-13T08:36:42;100719.63;;;21.75;33.22
64614;BME280;51025;37.772;-122.432;2022-09-13T08:39:11;100719.72;;;21.75;32.85
64614;BME280;51025;37.772;-122.432;2022-09-13T08:42:38;100719.91;;;22.62;33.09
64614;BME280;51025;37.772;-122.432;2022-09-13T08:45:11;100717.36;;;21.73;33.24
64614;BME280;51025;37.772;-122.432;2022-09-13T08:47:45;100717.16;;;21.63;33.30
64614;BME280;51025;37.772;-122.432;2022-09-13T08:50:20;100720.58;;;22.05;32.89
64614;BME280;51025;37.772;-122.432;2022-09-13T08:53:02;100719.36;;;20.47;33.35
64614;BME280;51025;37.772;-122.432;2022-09-13T08:55:44;100713.13;;;21.61;33.31
64614;BME280;51025;37.772;-122.432;2022-09-13T08:58:34;100714.55;;;21.19;33.35
64614;BME280;51025;37.772;-122.432;2022-09-13T09:01:07;100712.78;;;20.80;33.40
64614;BME280;51025;37.772;-122.432;2022-09-13T09:03:44;100707.69;;;21.55;33.36
64614;BME280;51025;37.772;-122.432;2022-09-13T09:06:15;100704.90;;;21.49;33.42
64614;BME280;51025;37.772;-122.432;2022-09-13T09:08:47;100698.73;;;20.94;33.23
64614;BME280;51025;37.772;-122.432;2022-09-13T09:11:26;100698.96;;;21.68;33.20
64614;BME280;51025;37.772;-122.432;2022-09-13T09:14:03;100697.65;;;21.14;33.38
64614;BME280;51025;37.772;-122.432;2022-09-13T09:16:39;100694.58;;;21.53;33.32
64614;BME280;51025;37.772;-122.432;2022-09-13T09:19:20;100694.83;;;21.27;33.59
64614;BME280;51025;37.772;-122.432;2022-09-13T09:21:50;100697.31;;;20.69;33.45
64614;BME280;51025;37.772;-122.432;2022-09-13T09:24:21;100696.83;;;21.42;33.42
64614;BME280;51025;37.772;-122.432;2022-09-13T09:26:51;100695.95;;;20.27;33.45
64614;BME280;51025;37.772;-122.432;2022-09-13T09:29:23;100694.11;;;21.53;33.30
64614;BME280;51025;37.772;-122.432;2022-09-13T09:32:05;100700.47;;;21.35;33.48
64614;BME280;51025;37.772;-122.432;2022-09-13T09:34:48;100702.87;;;21.84;33.34
64614;BME280;51025;37.772;-122.432;2022-09-13T09:37:22;100706.84;;;21.32;33.51
64614;BME280;51025;37.772;-122.432;2022-09-13T09:39:52;100701.93;;;20.68;33.44
64614;BME280;51025;37.772;-122.432;2022-09-13T09:42:25;100702.92;;;21.31;33.47
64614;BME280;51025;37.772;-122.432;2022-09-13T09:44:57;100698.84;;;20.68;33.40
64614;BME280;51025;37.772;-122.432;2022-09-13T09:47:28;100696.73;;;21.76;33.45
64614;BME280;51025;37.772;-122.432;2022-09-13T09:50:05;100700.67;;;20.93;33.48
64614;BME280;51025;37.772;-122.432;2022-09-13T09:52:42;100698.08;;;21.28;33.51
64614;BME280;51025;37.772;-122.432;2022-09-13T09:55:17;100695.46;;;20.83;33.56
64614;BME280;51025;37.772;-122.432;2022-09-13T09:57:52;100698.23;;;20.53;33.51
64614;BME280;51025;37.772;-122.432;2022-09-13T10:00:22;100706.09;;;21.72;33.45
64614;BME280;51025;37.772;-122.432;2022-09-13T10:02:53;100705.20;;;20.40;33.18
64614;BME280;51025;37.772;-122.432;2022-09-13T10:05:24;100702.27;;;21.48;33.20
64614;BME280;51025;37.772;-122.432;2022-09-13T10:07:55;100696.18;;;20.98;33.40
64614;BME280;51025;37.772;-122.432;2022-09-13T10:10:28;100698.63;;;21.12;33.61
64614;BME280;51025;37.772;-122.432;2022-09-13T10:13:00;100699.94;;;20.47;33.51
64614;BME280;51025;37.772;-122.432;2022-09-13T10:15:31;100698.26;;;21.41;33.29
64614;BME280;51025;37.772;-122.432;2022-09-13T10:18:04;100698.47;;;20.91;33.44
64614;BME280;51025;37.772;-122.432;2022-09-13T10:20:33;100698.28;;;21.23;33.50
64614;BME280;51025;37.772;-122.432;2022-09-13T10:23:18;100701.26;;;20.88;33.46
64614;BME280;51025;37.772;-122.432;2022-09-13T10:26:04;100701.00;;;20.67;33.31
64614;BME280;51025;37.772;-122.432;2022-09-13T10:28:40;100686.69;;;21.12;33.54
64614;BME280;51025;37.772;-122.432;2022-09-13T10:31:12;100696.08;;;21.38;33.29
64614;BME280;51025;37.772;-122.432;2022-09-13T10:33:43;100703.68;;;21.23;33.41
64614;BME280;51025;37.772;-122.432;2022-09-13T10:36:23;100696.10;;;21.56;33.53
64614;BME280;51025;37.772;-122.432;2022-09-13T10:39:01;100699.80;;;20.24;33.72
64614;BME280;51025;37.772;-122.432;2022-09-13T10:41:32;100703.64;;;21.62;33.47
64614;BME280;51025;37.772;-122.432;2022-09-13T10:44:03;100695.68;;;21.17;33.45
64614;BME280;51025;37.772;-122.432;2022-09-13T10:46:37;100700.38;;;21.07;33.57
64614;BME280;51025;37.772;-122.432;2022-09-13T10:49:35;100694.75;;;20.94;33.66
64614;BME280;51025;37.772;-122.432;2022-09-13T10:52:26;100697.39;;;20.71;33.54
64614;BME280;51025;37.772;-122.432;2022-09-13T10:54:55;100699.15;;;20.52;33.36
64614;BME280;51025;37.772;-122.432;2022-09-13T10:57:42;100699.90;;;21.12;33.44
64614;BME280;51025;37.772;-122.432;2022-09-13T11:00:13;100693.82;;;21.12;33.43
64614;BME280;51025;37.772;-122.432;2022-09-13T11:02:52;100693.51;;;21.07;33.48
64614;BME280;51025;37.772;-122.432;2022-09-13T11:05:30;100694.23;;;20.75;33.80
64614;BME280;51025;37.772;-122.432;2022-09-13T11:08:15;100698.35;;;20.90;33.63
64614;BME280;51025;37.772;-122.432;2022-09-13T11:10:59;100700.47;;;20.30;33.51
64614;BME280;51025;37.772;-122.432;2022-09-13T11:13:39;100708.88;;;20.97;33.53
64614;BME280;51025;37.772;-122.432;2022-09-13T11:16:22;100707.65;;;20.92;33.58
64614;BME280;51025;37.772;-122.432;2022-09-13T11:19:13;100707.60;;;20.81;33.67
64614;BME280;51025;37.772;-122.432;2022-09-13T11:21:59;100697.65;;;20.03;33.74
64614;BME280;51025;37.772;-122.432;2022-09-13T11:24:49;100696.58;;;20.91;33.62
64614;BME280;51025;37.772;-122.432;2022-09-13T11:27:30;100691.15;;;21.18;33.73
64614;BME280;51025;37.772;-122.432;2022-09-13T11:30:09;100692.11;;;20.54;33.57
64614;BME280;51025;37.772;-122.432;2022-09-13T11:32:54;100692.73;;;21.24;33.60
64614;BME280;51025;37.772;-122.432;2022-09-13T11:35:41;100690.45;;;21.22;33.62
64614;BME280;51025;37.772;-122.432;2022-09-13T11:38:30;100692.64;;;20.79;33.60
64614;BME280;51025;37.772;-122.432;2022-09-13T11:41:09;100691.68;;;20.92;33.51
64614;BME280;51025;37.772;-122.432;2022-09-13T11:43:49;100689.00;;;20.85;33.54
64614;BME280;51025;37.772;-122.432;2022-09-13T11:46:27;100683.44;;;21.29;33.53
64614;BME280;51025;37.772;-122.432;2022-09-13T11:49:21;100682.18;;;20.68;33.69
64614;BME280;51025;37.772;-122.432;2022-09-13T11:52:05;100683.38;;;20.19;33.48
64614;BME280;51025;37.772;-122.432;2022-09-13T11:54:51;100686.39;;;20.75;33.60
64614;BME280;51025;37.772;-122.432;2022-09-13T11:57:28;100684.93;;;20.73;33.61
64614;BME280;51025;37.772;-122.432;2022-09-13T12:00:03;100687.04;;;20.77;33.56
64614;BME280;51025;37.772;-122.432;2022-09-13T12:02:38;100681.20;;;20.66;33.64
64614;BME280;51025;37.772;-122.432;2022-09-13T12:05:13;100680.63;;;20.75;33.55
64614;BME280;51025;37.772;-122.432;2022-09-13T12:07:47;100676.17;;;20.61;33.67
64614;BME280;51025;37.772;-122.432;2022-09-13T12:10:21;100676.50;;;20.54;33.72
64614;BME280;51025;37.772;-122.432;2022-09-13T12:12:52;100679.01;;;19.91;33.67
64614;BME280;51025;37.772;-122.432;2022-09-13T12:15:31;100679.92;;;21.02;33.67
64614;BME280;51025;37.772;-122.432;2022-09-13T12:18:09;100683.65;;;20.63;33.59
64614;BME280;51025;37.772;-122.432;2022-09-13T12:20:43;100687.46;;;20.89;33.77
64614;BME280;51025;37.772;-122.432;2022-09-13T12:23:18;100685.64;;;21.29;33.70
64614;BME280;51025;37.772;-122.432;2022-09-13T12:25:54;100683.75;;;20.16;33.33
64614;BME280;51025;37.772;-122.432;2022-09-13T12:28:27;100690.00;;;20.91;33.67
64614;BME280;51025;37.772;-122.432;2022-09-13T12:31:01;100689.09;;;20.08;33.74
64614;BME280;51025;37.772;-122.432;2022-09-13T12:33:31;100691.78;;;21.17;33.39
64614;BME280;51025;37.772;-122.432;2022-09-13T12:36:16;100691.88;;;20.05;33.75
64614;BME280;51025;37.772;-122.432;2022-09-13T12:39:12;100692.23;;;19.72;33.68
64614;BME280;51025;37.772;-122.432;2022-09-13T12:41:56;100691.31;;;20.48;33.59
64614;BME280;51025;37.772;-122.432;2022-09-13T12:44:43;100692.48;;;20.91;33.58
64614;BME280;51025;37.772;-122.432;2022-09-13T12:47:32;100690.39;;;20.75;33.33
64614;BME280;51025;37.772;-122.432;2022-09-13T12:50:28;100692.09;;;20.41;33.65
64614;BME280;51025;37.772;-122.432;2022-09-13T12:53:10;100696.78;;;20.95;33.54